createdAt,value
2017-12-19T00:00:23.944Z,17.97
2017-12-19T00:02:52.361Z,18.73
2017-12-19T00:05:21.476Z,20.07
2017-12-19T00:07:49.921Z,26.10
2017-12-19T00:10:20.573Z,22.00
2017-12-19T00:12:48.926Z,18.70
2017-12-19T00:15:17.259Z,16.23
2017-12-19T00:17:45.630Z,18.43
2017-12-19T00:20:13.961Z,17.03
2017-12-19T00:22:43.091Z,14.50
2017-12-19T00:25:12.724Z,16.03
2017-12-19T00:27:41.050Z,15.67
2017-12-19T00:30:10.180Z,16.30
2017-12-19T00:32:38.497Z,20.40
2017-12-19T00:35:06.841Z,16.50
2017-12-19T00:37:35.163Z,18.63
2017-12-19T00:40:03.550Z,15.60
2017-12-19T00:42:32.640Z,18.77
2017-12-19T00:45:00.980Z,18.67
2017-12-19T00:47:29.345Z,19.10
2017-12-19T00:49:57.684Z,17.20
2017-12-19T00:52:26.792Z,21.00
2017-12-19T00:54:55.137Z,16.90
2017-12-19T00:57:23.578Z,18.40
2017-12-19T00:59:51.920Z,16.70
2017-12-19T01:02:21.024Z,15.63
2017-12-19T01:04:49.386Z,15.70
2017-12-19T01:07:18.576Z,14.73
2017-12-19T01:09:47.784Z,16.37
2017-12-19T01:12:16.895Z,16.50
2017-12-19T01:14:45.273Z,17.40
2017-12-19T01:17:13.617Z,14.13
2017-12-19T01:19:42.017Z,15.57
2017-12-19T01:22:11.127Z,15.73
2017-12-19T01:24:39.462Z,17.00
2017-12-19T01:27:07.814Z,14.73
2017-12-19T01:29:36.155Z,24.07
2017-12-19T01:32:04.496Z,17.20
2017-12-19T01:34:32.868Z,17.60
2017-12-19T01:37:01.260Z,16.03
2017-12-19T01:39:29.587Z,17.10
2017-12-19T01:41:57.939Z,17.63
2017-12-19T01:44:26.297Z,17.03
2017-12-19T01:46:55.417Z,19.10
2017-12-19T01:49:23.776Z,15.30
2017-12-19T01:51:52.896Z,16.03
2017-12-19T01:54:21.268Z,16.33
2017-12-19T01:56:49.601Z,20.30
2017-12-19T01:59:17.953Z,17.30
2017-12-19T02:01:46.312Z,16.80
2017-12-19T02:04:14.670Z,18.60
2017-12-19T02:06:43.849Z,21.23
2017-12-19T02:09:12.965Z,15.10
2017-12-19T02:11:41.300Z,14.43
2017-12-19T02:14:09.669Z,15.30
2017-12-19T02:16:40.742Z,18.20
2017-12-19T02:19:09.831Z,17.80
2017-12-19T02:21:38.214Z,15.93
2017-12-19T02:24:07.400Z,15.83
2017-12-19T02:26:35.810Z,14.37
2017-12-19T02:29:04.133Z,13.27
2017-12-19T02:31:32.470Z,16.00
2017-12-19T02:34:00.814Z,17.80
2017-12-19T02:36:29.923Z,13.77
2017-12-19T02:38:59.013Z,14.27
2017-12-19T02:41:28.224Z,14.60
2017-12-19T02:43:57.351Z,15.73
2017-12-19T02:46:25.788Z,15.33
2017-12-19T02:48:54.908Z,14.57
2017-12-19T02:51:23.255Z,13.87
2017-12-19T02:53:51.607Z,14.67
2017-12-19T02:56:20.059Z,15.23
2017-12-19T02:58:48.393Z,14.70
2017-12-19T03:01:17.485Z,16.17
2017-12-19T03:03:46.632Z,15.00
2017-12-19T03:06:14.948Z,14.90
2017-12-19T03:08:43.284Z,16.30
2017-12-19T03:11:11.639Z,16.20
2017-12-19T03:13:40.072Z,15.30
2017-12-19T03:16:08.417Z,16.57
2017-12-19T03:18:36.742Z,17.53
2017-12-19T03:21:05.104Z,15.50
2017-12-19T03:23:33.442Z,17.77
2017-12-19T03:26:01.776Z,15.00
2017-12-19T03:28:30.924Z,16.47
2017-12-19T03:30:59.260Z,14.23
2017-12-19T03:33:28.360Z,15.47
2017-12-19T03:35:57.547Z,15.63
2017-12-19T03:38:26.720Z,16.77
2017-12-19T03:40:55.050Z,16.77
2017-12-19T03:43:23.377Z,15.30
2017-12-19T03:45:51.756Z,15.60
2017-12-19T03:48:20.176Z,15.27
2017-12-19T03:50:48.510Z,16.70
2017-12-19T03:53:16.874Z,16.00
2017-12-19T03:55:45.240Z,16.27
2017-12-19T03:58:13.608Z,18.67
2017-12-19T04:00:41.929Z,18.00
2017-12-19T04:03:10.335Z,16.00
2017-12-19T04:05:38.685Z,17.60
2017-12-19T04:08:07.036Z,16.50
2017-12-19T04:10:35.399Z,17.30
2017-12-19T04:13:03.752Z,16.17
2017-12-19T04:15:32.113Z,18.57
2017-12-19T04:18:01.271Z,16.03
2017-12-19T04:20:29.683Z,16.83
2017-12-19T04:22:58.782Z,16.20
2017-12-19T04:25:27.920Z,16.80
2017-12-19T04:27:56.250Z,17.57
2017-12-19T04:30:24.574Z,18.10
2017-12-19T04:32:52.922Z,17.30
2017-12-19T04:35:21.269Z,18.40
2017-12-19T04:37:49.723Z,18.70
2017-12-19T04:40:18.053Z,17.53
2017-12-19T04:42:47.150Z,16.10
2017-12-19T04:45:16.276Z,15.43
2017-12-19T04:47:44.635Z,19.43
2017-12-19T04:50:13.054Z,17.80
2017-12-19T04:52:41.404Z,17.90
2017-12-19T04:55:09.871Z,16.97
2017-12-19T04:57:38.220Z,16.17
2017-12-19T05:00:07.331Z,18.80
2017-12-19T05:02:36.463Z,17.20
2017-12-19T05:05:04.799Z,17.23
2017-12-19T05:07:33.920Z,17.47
2017-12-19T05:10:02.283Z,18.07
2017-12-19T05:12:30.619Z,18.20
2017-12-19T05:14:58.970Z,18.37
2017-12-19T05:17:27.299Z,18.47
2017-12-19T05:19:56.426Z,18.83
2017-12-19T05:22:24.800Z,19.20
2017-12-19T05:24:53.144Z,18.90
2017-12-19T05:27:22.272Z,21.33
2017-12-19T05:29:50.588Z,22.20
2017-12-19T05:32:19.011Z,23.50
2017-12-19T05:34:48.104Z,22.60
2017-12-19T05:37:17.222Z,24.57
2017-12-19T05:39:45.621Z,29.63
2017-12-19T05:42:13.972Z,26.23
2017-12-19T05:44:42.431Z,27.50
2017-12-19T05:47:11.526Z,34.17
2017-12-19T05:49:40.700Z,29.67
2017-12-19T05:52:09.017Z,29.30
2017-12-19T05:54:37.347Z,34.23
2017-12-19T05:57:05.724Z,34.93
2017-12-19T05:59:34.066Z,31.40
2017-12-19T06:02:02.391Z,36.07
2017-12-19T06:04:30.741Z,34.53
2017-12-19T06:06:59.164Z,36.40
2017-12-19T06:09:28.380Z,35.33
2017-12-19T06:11:56.707Z,35.60
2017-12-19T06:14:25.101Z,33.90
2017-12-19T06:16:53.488Z,34.33
2017-12-19T06:19:21.812Z,35.87
2017-12-19T06:21:50.170Z,36.23
2017-12-19T06:24:18.529Z,36.53
2017-12-19T06:26:47.665Z,41.30
2017-12-19T06:29:16.030Z,37.30
2017-12-19T06:31:44.352Z,42.23
2017-12-19T06:34:12.740Z,38.87
2017-12-19T06:36:41.117Z,41.50
2017-12-19T06:39:09.428Z,41.13
2017-12-19T06:41:37.826Z,46.27
2017-12-19T06:44:06.145Z,50.53
2017-12-19T06:46:34.506Z,44.50
2017-12-19T06:49:02.824Z,54.93
2017-12-19T06:51:31.949Z,47.53
2017-12-19T06:54:00.286Z,43.83
2017-12-19T06:56:28.630Z,48.43
2017-12-19T06:58:57.017Z,53.23
2017-12-19T07:01:25.431Z,46.10
2017-12-19T07:03:54.615Z,46.47
2017-12-19T07:06:22.973Z,49.97
2017-12-19T07:08:51.379Z,52.77
2017-12-19T07:11:19.719Z,52.20
2017-12-19T07:13:48.053Z,52.93
2017-12-19T07:16:16.381Z,45.60
2017-12-19T07:18:44.744Z,46.90
2017-12-19T07:21:13.166Z,46.30
2017-12-19T07:23:42.261Z,49.30
2017-12-19T07:26:11.402Z,46.97
2017-12-19T07:28:39.720Z,51.20
2017-12-19T07:31:08.060Z,42.87
2017-12-19T07:33:36.425Z,41.87
2017-12-19T07:36:04.744Z,42.40
2017-12-19T07:38:33.075Z,48.03
2017-12-19T07:41:01.432Z,44.63
2017-12-19T07:43:30.619Z,43.50
2017-12-19T07:45:59.747Z,43.23
2017-12-19T07:48:28.105Z,38.87
2017-12-19T07:50:57.253Z,39.07
2017-12-19T07:53:25.635Z,42.13
2017-12-19T07:55:54.917Z,39.30
2017-12-19T07:58:23.255Z,41.53
2017-12-19T08:00:52.362Z,39.13
2017-12-19T08:03:20.701Z,39.80
2017-12-19T08:05:49.076Z,40.73
2017-12-19T08:08:17.403Z,42.13
2017-12-19T08:10:45.723Z,36.43
2017-12-19T08:13:14.087Z,37.40
2017-12-19T08:15:42.410Z,45.20
2017-12-19T08:18:11.517Z,40.57
2017-12-19T08:20:40.683Z,39.70
2017-12-19T08:23:09.016Z,50.00
2017-12-19T08:25:37.440Z,40.27
2017-12-19T08:28:05.829Z,41.53
2017-12-19T08:30:34.916Z,46.03
2017-12-19T08:33:03.229Z,41.87
2017-12-19T08:35:31.582Z,44.50
2017-12-19T08:38:00.873Z,42.33
2017-12-19T08:40:30.080Z,44.47
2017-12-19T08:42:59.231Z,50.93
2017-12-19T08:45:27.551Z,48.97
2017-12-19T08:47:56.663Z,44.07
2017-12-19T08:50:25.040Z,47.67
2017-12-19T08:52:54.147Z,50.00
2017-12-19T08:55:22.459Z,47.10
2017-12-19T08:57:50.865Z,55.53
2017-12-19T09:00:19.197Z,50.77
2017-12-19T09:02:47.564Z,55.50
2017-12-19T09:05:15.935Z,51.50
2017-12-19T09:07:44.268Z,57.63
2017-12-19T09:10:12.624Z,52.63
2017-12-19T09:12:41.058Z,60.20
2017-12-19T09:15:09.451Z,57.03
2017-12-19T09:17:37.835Z,50.37
2017-12-19T09:20:06.156Z,57.37
2017-12-19T09:22:34.488Z,55.50
2017-12-19T09:25:02.905Z,70.93
2017-12-19T09:27:31.312Z,64.80
2017-12-19T09:30:00.414Z,70.00
2017-12-19T09:32:29.748Z,60.43
2017-12-19T09:34:58.079Z,63.87
2017-12-19T09:37:27.181Z,60.50
2017-12-19T09:39:56.300Z,65.97
2017-12-19T09:42:24.652Z,59.37
2017-12-19T09:44:53.771Z,62.80
2017-12-19T09:47:22.218Z,62.30
2017-12-19T09:49:50.544Z,61.80
2017-12-19T09:52:18.868Z,60.67
2017-12-19T09:54:47.270Z,67.10
2017-12-19T09:57:16.405Z,60.87
2017-12-19T09:59:44.738Z,64.60
2017-12-19T10:02:13.877Z,59.57
2017-12-19T10:04:42.256Z,57.97
2017-12-19T10:07:10.601Z,59.03
2017-12-19T10:09:38.922Z,60.03
2017-12-19T10:12:07.284Z,59.03
2017-12-19T10:14:35.577Z,58.60
2017-12-19T10:17:03.890Z,59.27
2017-12-19T10:19:32.241Z,63.37
2017-12-19T10:22:00.557Z,58.13
2017-12-19T10:24:29.731Z,56.23
2017-12-19T10:26:58.089Z,66.33
2017-12-19T10:29:26.416Z,61.50
2017-12-19T10:31:54.751Z,58.17
2017-12-19T10:34:23.127Z,66.30
2017-12-19T10:36:51.457Z,60.10
2017-12-19T10:39:19.806Z,59.60
2017-12-19T10:41:49.096Z,58.50
2017-12-19T10:44:17.432Z,58.53
2017-12-19T10:46:45.775Z,67.13
2017-12-19T10:49:14.101Z,55.70
2017-12-19T10:51:42.475Z,55.07
2017-12-19T10:54:10.791Z,58.30
2017-12-19T10:56:39.898Z,54.90
2017-12-19T10:59:09.020Z,48.67
2017-12-19T11:01:37.353Z,49.80
2017-12-19T11:04:05.680Z,57.13
2017-12-19T11:06:34.054Z,65.83
2017-12-19T11:09:02.373Z,43.23
2017-12-19T11:11:30.697Z,53.70
2017-12-19T11:13:59.032Z,45.50
2017-12-19T11:16:28.884Z,49.90
2017-12-19T11:18:57.246Z,52.10
2017-12-19T11:21:26.342Z,48.93
2017-12-19T11:23:55.462Z,48.97
2017-12-19T11:26:23.786Z,51.73
2017-12-19T11:28:52.108Z,48.33
2017-12-19T11:31:20.458Z,45.27
2017-12-19T11:33:50.441Z,38.53
2017-12-19T11:36:18.784Z,40.27
2017-12-19T11:38:47.110Z,41.87
2017-12-19T11:41:15.481Z,40.93
2017-12-19T11:43:43.816Z,39.03
2017-12-19T11:46:12.146Z,38.73
2017-12-19T11:48:40.520Z,36.90
2017-12-19T11:51:09.073Z,35.10
2017-12-19T11:53:37.407Z,34.90
2017-12-19T11:56:06.537Z,35.83
2017-12-19T11:58:34.856Z,33.67
2017-12-19T12:01:03.203Z,44.20
2017-12-19T12:03:31.531Z,32.80
2017-12-19T12:06:00.675Z,42.07
2017-12-19T12:08:29.050Z,33.73
2017-12-19T12:10:57.500Z,29.10
2017-12-19T12:16:01.100Z,35.80
2017-12-19T12:18:30.238Z,34.23
2017-12-19T12:20:58.559Z,27.53
2017-12-19T12:23:26.954Z,29.30
2017-12-19T12:25:56.079Z,24.93
2017-12-19T12:28:24.422Z,25.87
2017-12-19T12:30:53.564Z,31.17
2017-12-19T12:33:22.042Z,21.73
2017-12-19T12:35:50.380Z,25.13
2017-12-19T12:38:19.474Z,26.23
2017-12-19T12:40:48.596Z,23.60
2017-12-19T12:43:16.969Z,24.07
2017-12-19T12:45:45.496Z,22.90
2017-12-19T12:48:13.850Z,21.23
2017-12-19T12:50:42.179Z,19.47
2017-12-19T12:53:11.299Z,20.87
2017-12-19T12:55:39.651Z,17.83
2017-12-19T12:58:08.787Z,15.53
2017-12-19T13:00:37.125Z,18.23
2017-12-19T13:03:06.260Z,15.80
2017-12-19T13:05:34.611Z,15.43
2017-12-19T13:08:02.944Z,15.13
2017-12-19T13:10:31.378Z,10.50
2017-12-19T13:12:59.776Z,13.13
2017-12-19T13:15:28.111Z,17.90
2017-12-19T13:17:57.314Z,14.27
2017-12-19T13:20:26.427Z,10.87
2017-12-19T13:22:54.744Z,13.70
2017-12-19T13:25:23.149Z,14.03
2017-12-19T13:27:51.487Z,12.87
2017-12-19T13:30:19.952Z,15.47
2017-12-19T13:32:48.418Z,13.43
2017-12-19T13:35:16.785Z,12.20
2017-12-19T13:37:45.897Z,13.93
2017-12-19T13:40:14.225Z,14.60
2017-12-19T13:42:42.623Z,14.30
2017-12-19T13:45:10.969Z,15.40
2017-12-19T13:47:39.389Z,16.63
2017-12-19T13:50:08.584Z,17.00
2017-12-19T13:52:37.687Z,17.97
2017-12-19T13:55:06.060Z,18.83
2017-12-19T13:57:35.236Z,15.30
2017-12-19T14:00:03.586Z,15.03
2017-12-19T14:02:31.922Z,13.00
2017-12-19T14:05:00.282Z,17.00
2017-12-19T14:07:29.468Z,15.07
2017-12-19T14:09:57.944Z,13.10
2017-12-19T14:12:26.272Z,13.47
2017-12-19T14:14:54.608Z,15.50
2017-12-19T14:17:23.739Z,12.00
2017-12-19T14:19:52.076Z,14.20
2017-12-19T14:22:20.474Z,16.70
2017-12-19T14:24:49.602Z,14.83
2017-12-19T14:27:18.029Z,13.80
2017-12-19T14:29:46.367Z,13.70
2017-12-19T14:32:14.715Z,13.60
2017-12-19T14:34:43.166Z,13.43
2017-12-19T14:37:11.479Z,16.03
2017-12-19T14:39:39.797Z,15.40
2017-12-19T14:42:08.157Z,14.83
2017-12-19T14:44:36.624Z,15.80
2017-12-19T14:47:04.955Z,16.87
2017-12-19T14:49:34.087Z,13.60
2017-12-19T14:52:02.452Z,16.90
2017-12-19T14:54:30.784Z,14.93
2017-12-19T14:56:59.121Z,17.00
2017-12-19T14:59:27.476Z,17.03
2017-12-19T15:01:56.556Z,16.47
2017-12-19T15:04:25.661Z,13.10
2017-12-19T15:06:54.785Z,13.90
2017-12-19T15:09:23.125Z,17.50
2017-12-19T15:11:52.222Z,16.90
2017-12-19T15:14:21.345Z,16.73
2017-12-19T15:16:49.675Z,15.30
2017-12-19T15:19:18.020Z,15.70
2017-12-19T15:21:46.365Z,12.97
2017-12-19T15:24:14.712Z,16.70
2017-12-19T15:26:43.048Z,17.67
2017-12-19T15:29:11.373Z,19.63
2017-12-19T15:31:39.730Z,21.60
2017-12-19T15:34:08.149Z,17.27
2017-12-19T15:36:37.267Z,25.93
2017-12-19T15:39:05.607Z,18.47
2017-12-19T15:41:33.971Z,19.50
2017-12-19T15:44:03.128Z,19.10
2017-12-19T15:46:31.462Z,26.30
2017-12-19T15:49:00.569Z,23.80
2017-12-19T15:51:29.732Z,27.50
2017-12-19T15:53:58.057Z,28.97
2017-12-19T15:56:26.397Z,23.67
2017-12-19T15:58:54.810Z,19.87
2017-12-19T16:01:23.148Z,29.00
2017-12-19T16:03:51.687Z,25.93
2017-12-19T16:06:20.028Z,22.93
2017-12-19T16:08:49.174Z,25.60
2017-12-19T16:11:17.520Z,30.50
2017-12-19T16:13:45.873Z,29.03
2017-12-19T16:16:14.968Z,24.17
2017-12-19T16:18:44.089Z,26.43
2017-12-19T16:21:12.416Z,26.40
2017-12-19T16:23:40.820Z,22.23
2017-12-19T16:26:09.957Z,29.73
2017-12-19T16:28:38.293Z,30.00
2017-12-19T16:31:07.437Z,26.20
2017-12-19T16:33:35.768Z,30.27
2017-12-19T16:36:04.162Z,29.40
2017-12-19T16:38:33.276Z,25.20
2017-12-19T16:41:01.620Z,29.50
2017-12-19T16:43:30.818Z,21.73
2017-12-19T16:45:59.933Z,30.03
2017-12-19T16:48:28.293Z,23.00
2017-12-19T16:50:57.453Z,29.50
2017-12-19T16:53:25.863Z,23.40
2017-12-19T16:55:54.208Z,25.30
2017-12-19T16:58:22.565Z,24.23
2017-12-19T17:00:50.926Z,24.57
2017-12-19T17:03:19.253Z,22.83
2017-12-19T17:05:47.596Z,23.83
2017-12-19T17:08:15.928Z,28.50
2017-12-19T17:10:44.276Z,28.83
2017-12-19T17:13:13.408Z,29.30
2017-12-19T17:15:42.532Z,24.47
2017-12-19T17:18:10.844Z,28.47
2017-12-19T17:20:39.181Z,28.27
2017-12-19T17:23:07.550Z,31.37
2017-12-19T17:25:35.952Z,32.77
2017-12-19T17:28:04.401Z,26.27
2017-12-19T17:30:32.772Z,25.70
2017-12-19T17:33:01.131Z,31.17
2017-12-19T17:35:29.489Z,29.20
2017-12-19T17:37:57.840Z,31.53
2017-12-19T17:40:26.156Z,27.17
2017-12-19T17:42:54.523Z,26.80
2017-12-19T17:45:22.875Z,24.83
2017-12-19T17:47:51.250Z,27.93
2017-12-19T17:50:19.626Z,27.37
2017-12-19T17:52:47.970Z,36.83
2017-12-19T17:55:17.072Z,28.67
2017-12-19T17:57:46.220Z,29.70
2017-12-19T18:00:14.547Z,30.40
2017-12-19T18:02:43.641Z,35.73
2017-12-19T18:05:12.854Z,33.03
2017-12-19T18:07:41.320Z,30.13
2017-12-19T18:10:09.927Z,42.70
2017-12-19T18:12:39.277Z,29.80
2017-12-19T18:15:09.150Z,30.90
2017-12-19T18:17:37.473Z,28.50
2017-12-19T18:20:06.648Z,22.37
2017-12-19T18:22:34.999Z,34.13
2017-12-19T18:25:03.362Z,37.53
2017-12-19T18:27:32.932Z,33.23
2017-12-19T18:30:01.364Z,32.77
2017-12-19T18:32:29.729Z,32.30
2017-12-19T18:34:58.121Z,32.37
2017-12-19T18:37:26.472Z,27.77
2017-12-19T18:39:54.801Z,43.67
2017-12-19T18:42:23.172Z,37.73
2017-12-19T18:44:51.576Z,39.90
2017-12-19T18:47:19.902Z,35.30
2017-12-19T18:49:48.281Z,28.63
2017-12-19T18:52:16.611Z,31.60
2017-12-19T18:54:44.973Z,28.10
2017-12-19T18:57:13.303Z,29.93
2017-12-19T18:59:41.694Z,28.20
2017-12-19T19:02:10.124Z,31.27
2017-12-19T19:04:38.460Z,29.73
2017-12-19T19:07:06.879Z,22.50
2017-12-19T19:09:35.220Z,27.20
2017-12-19T19:12:03.547Z,28.37
2017-12-19T19:14:31.920Z,38.10
2017-12-19T19:17:01.040Z,29.43
2017-12-19T19:19:29.378Z,30.27
2017-12-19T19:21:59.249Z,32.43
2017-12-19T19:24:27.613Z,38.50
2017-12-19T19:26:55.972Z,28.03
2017-12-19T19:29:25.157Z,31.73
2017-12-19T19:31:54.274Z,34.70
2017-12-19T19:34:22.609Z,30.10
2017-12-19T19:36:50.995Z,40.07
2017-12-19T19:39:19.371Z,43.37
2017-12-19T19:41:47.706Z,46.93
2017-12-19T19:44:16.076Z,41.37
2017-12-19T19:46:44.467Z,49.63
2017-12-19T19:49:12.797Z,47.87
2017-12-19T19:51:41.927Z,46.23
2017-12-19T19:54:10.254Z,45.90
2017-12-19T19:56:38.581Z,44.50
2017-12-19T19:59:06.942Z,47.07
2017-12-19T20:01:35.279Z,39.33
2017-12-19T20:04:03.611Z,48.80
2017-12-19T20:06:31.968Z,49.17
2017-12-19T20:09:01.142Z,51.33
2017-12-19T20:11:30.232Z,40.37
2017-12-19T20:13:58.643Z,49.77
2017-12-19T20:16:27.870Z,37.43
2017-12-19T20:18:56.232Z,53.13
2017-12-19T20:21:24.564Z,52.93
2017-12-19T20:23:52.966Z,69.00
2017-12-19T20:26:22.062Z,69.77
2017-12-19T20:28:51.203Z,56.07
2017-12-19T20:31:19.530Z,65.93
2017-12-19T20:33:48.632Z,69.80
2017-12-19T20:36:17.758Z,56.80
2017-12-19T20:38:46.196Z,54.57
2017-12-19T20:41:15.356Z,60.47
2017-12-19T20:43:43.676Z,65.97
2017-12-19T20:46:12.785Z,56.60
2017-12-19T20:48:41.124Z,64.50
2017-12-19T20:51:09.452Z,62.27
2017-12-19T20:53:37.839Z,79.83
2017-12-19T20:56:06.162Z,69.07
2017-12-19T20:58:34.499Z,75.20
2017-12-19T21:01:02.838Z,67.47
2017-12-19T21:03:31.939Z,82.33
2017-12-19T21:06:01.058Z,78.23
2017-12-19T21:08:29.409Z,79.40
2017-12-19T21:10:58.549Z,87.47
2017-12-19T21:13:26.903Z,67.63
2017-12-19T21:15:55.228Z,67.73
2017-12-19T21:18:23.594Z,91.70
2017-12-19T21:20:51.938Z,90.37
2017-12-19T21:23:20.296Z,95.10
2017-12-19T21:28:23.264Z,74.43
2017-12-19T21:30:51.615Z,85.23
2017-12-19T21:33:19.973Z,70.50
2017-12-19T21:35:48.312Z,78.47
2017-12-19T21:38:17.457Z,93.47
2017-12-19T21:40:45.792Z,85.27
2017-12-19T21:43:14.942Z,77.97
2017-12-19T21:45:43.273Z,70.83
2017-12-19T21:48:12.360Z,70.80
2017-12-19T21:50:41.489Z,79.23
2017-12-19T21:53:10.017Z,78.47
2017-12-19T21:55:38.373Z,76.60
2017-12-19T21:58:06.801Z,89.93
2017-12-19T22:00:35.932Z,102.30
2017-12-19T22:03:04.273Z,83.77
2017-12-19T22:05:33.376Z,90.00
2017-12-19T22:08:01.728Z,69.97
2017-12-19T22:10:30.067Z,86.30
2017-12-19T22:12:58.447Z,96.03
2017-12-19T22:15:26.787Z,82.37
2017-12-19T22:17:55.121Z,79.93
2017-12-19T22:20:23.493Z,79.73
2017-12-19T22:22:51.859Z,75.90
2017-12-19T22:25:20.212Z,67.90
2017-12-19T22:27:48.535Z,81.07
2017-12-19T22:30:16.892Z,81.27
2017-12-19T22:32:45.254Z,80.03
2017-12-19T22:35:13.602Z,82.73
2017-12-19T22:37:42.692Z,73.00
2017-12-19T22:40:11.826Z,70.37
2017-12-19T22:42:40.159Z,73.27
2017-12-19T22:45:09.339Z,74.33
2017-12-19T22:47:37.739Z,71.00
2017-12-19T22:50:06.839Z,78.97
2017-12-19T22:52:35.988Z,77.57
2017-12-19T22:55:04.304Z,82.57
2017-12-19T22:57:33.493Z,84.30
2017-12-19T23:00:01.861Z,84.73
2017-12-19T23:02:30.209Z,84.97
2017-12-19T23:04:58.561Z,69.60
2017-12-19T23:07:26.922Z,74.20
2017-12-19T23:09:56.066Z,76.30
2017-12-19T23:12:24.392Z,74.93
2017-12-19T23:14:53.487Z,77.43
2017-12-19T23:17:22.611Z,67.20
2017-12-19T23:19:50.961Z,72.57
2017-12-19T23:22:20.076Z,69.30
2017-12-19T23:24:48.517Z,80.53
2017-12-19T23:27:16.902Z,86.50
2017-12-19T23:29:45.988Z,82.07
2017-12-19T23:32:14.374Z,71.27
2017-12-19T23:34:43.525Z,75.00
2017-12-19T23:37:11.869Z,84.00
2017-12-19T23:39:40.245Z,72.07
2017-12-19T23:42:08.603Z,74.43
2017-12-19T23:44:37.717Z,75.43
2017-12-19T23:47:06.076Z,74.17
2017-12-19T23:49:34.401Z,76.70
2017-12-19T23:52:02.772Z,64.10
2017-12-19T23:54:31.109Z,75.17
2017-12-19T23:57:00.203Z,80.07
2017-12-19T23:59:29.308Z,67.13
